This is the latest recevied weather packets stored in our database for station/object YM2KRB-11. If no packets are shown the sender has not sent any weather packets the latest 10 day(s).
| Time | Temp. | Humidity | Pressure | Rain* | Wind** | Luminosity | Snow |
|---|---|---|---|---|---|---|---|
| 1777545555 | 26.11° C | 21% | 941 hPa | - | - | - | - |
| 1777544354 | 28.89° C | 19% | 941.5 hPa | - | - | - | - |
| 1777543153 | 28.89° C | 18% | 941.7 hPa | - | - | - | - |
| 1777541952 | 27.78° C | 18% | 941.9 hPa | - | - | - | - |
| 1777540751 | 29.44° C | 19% | 942.2 hPa | - | - | - | - |
| 1777539551 | 28.33° C | 21% | 942.4 hPa | - | - | - | - |
| 1777538350 | 21.67° C | 30% | 942.5 hPa | - | - | - | - |
| 1777537149 | 24.44° C | 28% | 943 hPa | - | - | - | - |
| 1777535948 | 25° C | 27% | 943.3 hPa | - | - | - | - |
| 1777534748 | 22.78° C | 29% | 943.5 hPa | - | - | - | - |
| 1777533547 | 18.89° C | 33% | 943.5 hPa | - | - | - | - |
| 1777532346 | 21.11° C | 32% | 944 hPa | - | - | - | - |
| 1777531145 | 19.44° C | 34% | 944 hPa | - | - | - | - |
| 1777529944 | 16.67° C | 38% | 944.1 hPa | - | - | - | - |
| 1777528744 | 17.22° C | 38% | 944.4 hPa | - | - | - | - |
| 1777527543 | 15.56° C | 38% | 944.4 hPa | - | - | - | - |
| 1777526342 | 16.67° C | 37% | 944.5 hPa | - | - | - | - |
| 1777525141 | 15° C | 40% | 944.6 hPa | - | - | - | - |
| 1777523941 | 13.33° C | 42% | 944.6 hPa | - | - | - | - |
| 1777522740 | 13.33° C | 42% | 944.7 hPa | - | - | - | - |
| 1777521539 | 13.33° C | 42% | 944.8 hPa | - | - | - | - |
| 1777520338 | 11.67° C | 47% | 945.1 hPa | - | - | - | - |
| 1777519137 | 7.22° C | 58% | 944.3 hPa | - | - | - | - |
| 1777517936 | 6.11° C | 59% | 944.2 hPa | - | - | - | - |
| 1777516735 | 6.67° C | 58% | 944.2 hPa | - | - | - | - |
* Rain since midnight (hover to see other rain measurements)
** Current wind speed in m/s (hover to see current wind gust speed)